createdAt,value
2019-06-19T00:02:12.661Z,99.90
2019-06-19T00:04:43.093Z,99.90
2019-06-19T00:07:14.007Z,99.90
2019-06-19T00:09:43.506Z,99.90
2019-06-19T00:12:12.939Z,99.90
2019-06-19T00:14:42.692Z,99.90
2019-06-19T00:17:13.005Z,99.90
2019-06-19T00:19:43.514Z,99.90
2019-06-19T00:22:13.090Z,99.90
2019-06-19T00:24:43.458Z,99.90
2019-06-19T00:27:13.967Z,99.90
2019-06-19T00:29:44.299Z,99.90
2019-06-19T00:32:14.008Z,99.90
2019-06-19T00:34:43.472Z,99.90
2019-06-19T00:37:12.958Z,99.90
2019-06-19T00:39:42.345Z,99.90
2019-06-19T00:42:11.801Z,99.90
2019-06-19T00:44:41.211Z,99.90
2019-06-19T00:47:11.005Z,99.90
2019-06-19T00:49:41.003Z,99.90
2019-06-19T00:52:11.246Z,99.90
2019-06-19T00:54:46.795Z,99.90
2019-06-19T00:57:17.461Z,99.90
2019-06-19T00:59:55.521Z,99.90
2019-06-19T01:02:18.307Z,99.90
2019-06-19T01:04:47.766Z,99.90
2019-06-19T01:07:17.179Z,99.90
2019-06-19T01:09:46.616Z,99.90
2019-06-19T01:12:16.060Z,99.90
2019-06-19T01:14:45.846Z,99.90
2019-06-19T01:17:15.285Z,99.90
2019-06-19T01:19:44.724Z,99.90
2019-06-19T01:22:14.151Z,99.90
2019-06-19T01:24:43.595Z,99.90
2019-06-19T01:27:13.005Z,99.90
2019-06-19T01:29:42.903Z,99.90
2019-06-19T01:32:31.625Z,99.90
2019-06-19T01:35:01.157Z,99.90
2019-06-19T01:37:31.470Z,99.90
2019-06-19T01:40:01.827Z,99.90
2019-06-19T01:42:31.721Z,99.90
2019-06-19T01:45:01.639Z,99.90
2019-06-19T01:47:31.127Z,99.90
2019-06-19T01:50:00.950Z,99.90
2019-06-19T01:52:30.982Z,99.90
2019-06-19T01:55:01.417Z,99.90
2019-06-19T01:57:31.606Z,99.90
2019-06-19T02:00:01.947Z,99.90
2019-06-19T02:02:32.079Z,99.90
2019-06-19T02:05:01.960Z,99.90
2019-06-19T02:07:31.486Z,99.90
2019-06-19T02:10:01.867Z,99.90
2019-06-19T02:12:31.690Z,99.90
2019-06-19T02:15:01.708Z,99.90
2019-06-19T02:17:31.407Z,99.90
2019-06-19T02:20:01.006Z,99.90
2019-06-19T02:22:30.850Z,99.90
2019-06-19T02:25:01.347Z,99.90
2019-06-19T02:27:31.090Z,99.90
2019-06-19T02:30:02.160Z,99.90
2019-06-19T02:32:35.830Z,99.90
2019-06-19T02:35:03.021Z,99.90
2019-06-19T02:37:33.143Z,99.90
2019-06-19T02:40:02.619Z,99.90
2019-06-19T02:42:32.041Z,99.90
2019-06-19T02:45:01.527Z,99.90
2019-06-19T02:47:31.477Z,99.90
2019-06-19T02:50:00.895Z,99.90
2019-06-19T02:52:30.422Z,99.90
2019-06-19T02:54:59.862Z,99.90
2019-06-19T02:57:29.324Z,99.90
2019-06-19T02:59:58.746Z,99.90
2019-06-19T03:02:28.166Z,99.90
2019-06-19T03:04:57.654Z,99.90
2019-06-19T03:07:27.390Z,99.90
2019-06-19T03:09:56.823Z,99.90
2019-06-19T03:12:26.302Z,99.90
2019-06-19T03:14:56.658Z,99.90
2019-06-19T03:17:26.087Z,99.90
2019-06-19T03:19:55.517Z,99.90
2019-06-19T03:22:24.962Z,99.90
2019-06-19T03:24:54.410Z,99.90
2019-06-19T03:27:23.841Z,99.90
2019-06-19T03:29:53.274Z,99.90
2019-06-19T03:32:23.135Z,99.90
2019-06-19T03:34:52.581Z,99.90
2019-06-19T03:37:22.041Z,99.90
2019-06-19T03:39:51.750Z,99.90
2019-06-19T03:42:21.213Z,99.90
2019-06-19T03:44:51.061Z,99.90
2019-06-19T03:47:20.521Z,99.90
2019-06-19T03:49:50.043Z,99.90
2019-06-19T03:52:19.509Z,99.90
2019-06-19T03:54:49.002Z,99.90
2019-06-19T03:57:18.749Z,99.90
2019-06-19T03:59:48.555Z,99.90
2019-06-19T04:02:18.443Z,99.90
2019-06-19T04:04:47.950Z,99.90
2019-06-19T04:07:17.362Z,99.90
2019-06-19T04:09:46.812Z,98.90
2019-06-19T04:12:16.286Z,98.40
2019-06-19T04:14:45.803Z,97.50
2019-06-19T04:17:15.217Z,97.60
2019-06-19T04:19:44.621Z,97.80
2019-06-19T04:22:14.063Z,97.70
2019-06-19T04:24:43.514Z,98.40
2019-06-19T04:27:13.323Z,98.80
2019-06-19T04:29:44.725Z,99.70
2019-06-19T04:32:14.582Z,99.90
2019-06-19T04:34:44.114Z,99.90
2019-06-19T04:37:13.577Z,99.90
2019-06-19T04:39:43.301Z,99.70
2019-06-19T04:42:12.793Z,99.90
2019-06-19T04:44:42.234Z,99.90
2019-06-19T04:47:12.346Z,99.90
2019-06-19T04:49:42.067Z,99.90
2019-06-19T04:52:12.001Z,99.90
2019-06-19T04:54:41.445Z,99.90
2019-06-19T04:57:10.877Z,99.90
2019-06-19T04:59:41.119Z,99.90
2019-06-19T05:02:20.699Z,99.90
2019-06-19T05:04:42.071Z,99.90
2019-06-19T05:07:11.532Z,99.90
2019-06-19T05:09:41.058Z,99.90
2019-06-19T05:12:10.451Z,99.90
2019-06-19T05:14:39.911Z,99.90
2019-06-19T05:17:09.406Z,99.90
2019-06-19T05:19:39.199Z,99.90
2019-06-19T05:22:08.684Z,99.90
2019-06-19T05:24:38.117Z,99.90
2019-06-19T05:27:07.596Z,99.90
2019-06-19T05:29:37.019Z,99.60
2019-06-19T05:32:06.518Z,98.10
2019-06-19T05:34:35.965Z,96.80
2019-06-19T05:37:05.506Z,95.80
2019-06-19T05:39:34.925Z,94.30
2019-06-19T05:42:04.364Z,93.00
2019-06-19T05:44:33.842Z,91.80
2019-06-19T05:47:03.299Z,90.70
2019-06-19T05:49:32.774Z,86.90
2019-06-19T05:52:02.192Z,86.20
2019-06-19T05:54:31.662Z,82.30
2019-06-19T05:57:01.079Z,76.50
2019-06-19T05:59:30.534Z,77.30
2019-06-19T06:01:59.977Z,75.90
2019-06-19T06:04:29.438Z,75.00
2019-06-19T06:06:58.969Z,74.20
2019-06-19T06:09:28.510Z,73.40
2019-06-19T06:11:58.303Z,73.00
2019-06-19T06:14:27.819Z,74.20
2019-06-19T06:16:57.252Z,75.40
2019-06-19T06:19:26.690Z,76.80
2019-06-19T06:22:00.931Z,76.50
2019-06-19T06:24:30.390Z,77.70
2019-06-19T06:27:00.865Z,76.00
2019-06-19T06:29:30.306Z,75.40
2019-06-19T06:31:59.760Z,74.00
2019-06-19T06:34:29.183Z,75.90
2019-06-19T06:36:58.885Z,78.00
2019-06-19T06:39:28.327Z,79.60
2019-06-19T06:41:57.797Z,78.40
2019-06-19T06:44:27.203Z,78.10
2019-06-19T06:46:56.640Z,78.10
2019-06-19T06:49:26.113Z,75.40
2019-06-19T06:51:55.514Z,74.40
2019-06-19T06:54:24.950Z,75.40
2019-06-19T06:56:54.665Z,75.80
2019-06-19T06:59:25.329Z,75.60
2019-06-19T07:01:56.926Z,76.60
2019-06-19T07:04:26.133Z,76.80
2019-06-19T07:06:55.546Z,78.80
2019-06-19T07:09:24.991Z,77.40
2019-06-19T07:11:54.421Z,76.70
2019-06-19T07:14:23.953Z,76.30
2019-06-19T07:16:53.384Z,76.20
2019-06-19T07:19:22.921Z,75.00
2019-06-19T07:21:52.331Z,76.60
2019-06-19T07:24:22.118Z,76.40
2019-06-19T07:26:53.253Z,76.50
2019-06-19T07:29:22.884Z,76.20
2019-06-19T07:31:52.402Z,75.70
2019-06-19T07:34:21.833Z,75.40
2019-06-19T07:36:51.255Z,76.10
2019-06-19T07:39:31.470Z,74.70
2019-06-19T07:41:52.123Z,73.90
2019-06-19T07:44:21.573Z,74.70
2019-06-19T07:46:51.056Z,71.10
2019-06-19T07:49:20.508Z,71.20
2019-06-19T07:51:49.935Z,72.20
2019-06-19T07:54:20.707Z,72.40
2019-06-19T07:56:50.888Z,73.00
2019-06-19T07:59:20.290Z,73.00
2019-06-19T08:02:01.984Z,75.40
2019-06-19T08:04:20.802Z,75.20
2019-06-19T08:06:50.279Z,75.40
2019-06-19T08:09:20.077Z,73.40
2019-06-19T08:11:49.650Z,72.60
2019-06-19T08:14:19.216Z,75.00
2019-06-19T08:16:48.639Z,75.70
2019-06-19T08:19:18.073Z,74.40
2019-06-19T08:21:47.522Z,77.40
2019-06-19T08:24:16.937Z,75.00
2019-06-19T08:26:46.377Z,75.90
2019-06-19T08:29:15.835Z,77.80
2019-06-19T08:31:46.089Z,74.10
2019-06-19T08:34:15.527Z,73.70
2019-06-19T08:36:45.105Z,73.50
2019-06-19T08:39:15.017Z,73.30
2019-06-19T08:41:44.519Z,71.70
2019-06-19T08:44:13.867Z,72.90
2019-06-19T08:46:43.288Z,73.50
2019-06-19T08:49:12.715Z,72.70
2019-06-19T08:51:42.202Z,73.40
2019-06-19T08:54:11.615Z,74.70
2019-06-19T08:56:41.043Z,73.50
2019-06-19T08:59:10.447Z,72.50
2019-06-19T09:01:39.934Z,71.80
2019-06-19T09:04:09.347Z,72.60
2019-06-19T09:06:38.756Z,70.80
2019-06-19T09:09:10.299Z,70.70
2019-06-19T09:11:41.069Z,70.70
2019-06-19T09:14:10.544Z,69.70
2019-06-19T09:16:39.980Z,68.50
2019-06-19T09:19:09.422Z,69.70
2019-06-19T09:21:39.255Z,69.20
2019-06-19T09:24:08.709Z,69.40
2019-06-19T09:26:38.130Z,69.70
2019-06-19T09:29:07.585Z,67.90
2019-06-19T09:31:39.478Z,68.50
2019-06-19T09:34:08.972Z,66.70
2019-06-19T09:36:38.761Z,64.70
2019-06-19T09:39:08.308Z,64.80
2019-06-19T09:41:37.718Z,66.00
2019-06-19T09:44:07.226Z,66.70
2019-06-19T09:46:36.997Z,65.20
2019-06-19T09:49:06.410Z,64.80
2019-06-19T09:51:35.837Z,64.70
2019-06-19T09:54:05.294Z,63.80
2019-06-19T09:56:34.999Z,61.00
2019-06-19T09:59:04.678Z,59.40
2019-06-19T10:01:34.137Z,59.60
2019-06-19T10:04:03.589Z,62.20
2019-06-19T10:06:33.040Z,61.00
2019-06-19T10:09:02.858Z,62.40
2019-06-19T10:11:32.265Z,63.60
2019-06-19T10:14:01.746Z,61.00
2019-06-19T10:16:31.143Z,63.50
2019-06-19T10:19:02.818Z,63.00
2019-06-19T10:21:32.230Z,65.50
2019-06-19T10:24:02.045Z,62.50
2019-06-19T10:26:34.913Z,63.30
2019-06-19T10:29:02.558Z,64.80
2019-06-19T10:31:31.993Z,64.20
2019-06-19T10:34:01.818Z,62.10
2019-06-19T10:36:32.484Z,61.90
2019-06-19T10:39:02.171Z,61.20
2019-06-19T10:41:31.945Z,62.10
2019-06-19T10:44:01.402Z,61.80
2019-06-19T10:46:40.683Z,63.20
2019-06-19T10:49:01.900Z,63.30
2019-06-19T10:51:31.374Z,64.50
2019-06-19T10:54:00.797Z,64.00
2019-06-19T10:56:30.227Z,63.60
2019-06-19T10:58:59.636Z,61.90
2019-06-19T11:01:29.046Z,64.70
2019-06-19T11:03:58.495Z,62.70
2019-06-19T11:06:27.932Z,62.20
2019-06-19T11:08:57.353Z,58.00
2019-06-19T11:11:26.837Z,59.40
2019-06-19T11:13:56.557Z,60.00
2019-06-19T11:16:25.972Z,61.90
2019-06-19T11:18:55.431Z,62.20
2019-06-19T11:21:26.379Z,59.80
2019-06-19T11:23:56.434Z,61.00
2019-06-19T11:30:15.700Z,60.90
2019-06-19T11:32:45.154Z,63.80
2019-06-19T11:35:14.820Z,62.40
2019-06-19T11:37:44.609Z,63.10
2019-06-19T11:40:15.732Z,63.60
2019-06-19T11:42:45.500Z,63.50
2019-06-19T11:45:14.946Z,64.20
2019-06-19T11:47:44.923Z,63.50
2019-06-19T11:50:14.685Z,64.60
2019-06-19T11:52:44.702Z,65.20
2019-06-19T11:55:14.494Z,65.70
2019-06-19T11:57:44.702Z,66.40
2019-06-19T12:00:15.303Z,65.20
2019-06-19T12:02:44.744Z,65.70
2019-06-19T12:05:14.366Z,65.50
2019-06-19T12:07:43.897Z,64.50
2019-06-19T12:10:15.215Z,64.00
2019-06-19T12:12:44.640Z,63.40
2019-06-19T12:15:14.410Z,66.20
2019-06-19T12:17:43.859Z,66.70
2019-06-19T12:20:13.418Z,67.00
2019-06-19T12:22:42.855Z,65.80
2019-06-19T12:25:12.705Z,67.00
2019-06-19T12:27:43.412Z,65.40
2019-06-19T12:30:14.314Z,63.60
2019-06-19T12:32:44.097Z,66.00
2019-06-19T12:35:14.175Z,63.50
2019-06-19T12:37:45.499Z,64.40
2019-06-19T12:40:16.042Z,63.90
2019-06-19T12:42:46.425Z,62.70
2019-06-19T12:45:17.575Z,60.50
2019-06-19T12:47:47.413Z,61.10
2019-06-19T12:50:18.947Z,63.60
2019-06-19T12:52:48.531Z,59.90
2019-06-19T12:55:18.096Z,59.00
2019-06-19T12:57:47.604Z,60.10
2019-06-19T13:00:19.066Z,61.10
2019-06-19T13:02:48.499Z,61.60
2019-06-19T13:05:18.359Z,59.10
2019-06-19T13:07:47.826Z,57.90
2019-06-19T13:10:17.691Z,59.20
2019-06-19T13:12:47.076Z,59.80
2019-06-19T13:15:18.046Z,61.80
2019-06-19T13:17:47.498Z,61.90
2019-06-19T13:20:17.393Z,60.20
2019-06-19T13:22:46.822Z,62.80
2019-06-19T13:25:17.046Z,56.60
2019-06-19T13:27:46.475Z,57.00
2019-06-19T13:30:17.325Z,55.70
2019-06-19T13:32:46.749Z,58.00
2019-06-19T13:35:16.815Z,56.10
2019-06-19T13:37:46.223Z,56.70
2019-06-19T13:40:17.862Z,59.60
2019-06-19T13:42:47.277Z,57.20
2019-06-19T13:45:16.832Z,58.00
2019-06-19T13:47:46.264Z,55.00
2019-06-19T13:50:17.381Z,56.00
2019-06-19T13:52:46.811Z,55.30
2019-06-19T13:55:16.208Z,58.00
2019-06-19T13:57:47.697Z,59.00
2019-06-19T14:00:17.190Z,59.30
2019-06-19T14:02:47.000Z,57.10
2019-06-19T14:05:18.187Z,56.20
2019-06-19T14:07:47.630Z,55.70
2019-06-19T14:10:18.930Z,57.20
2019-06-19T14:12:48.391Z,58.00
2019-06-19T14:15:19.116Z,56.90
2019-06-19T14:17:48.857Z,57.00
2019-06-19T14:20:18.266Z,59.20
2019-06-19T14:22:47.698Z,57.30
2019-06-19T14:25:17.218Z,57.70
2019-06-19T14:27:46.555Z,57.30
2019-06-19T14:30:16.377Z,56.50
2019-06-19T14:32:45.786Z,57.40
2019-06-19T14:35:16.624Z,58.80
2019-06-19T14:37:46.063Z,56.50
2019-06-19T14:40:15.509Z,56.70
2019-06-19T14:42:44.930Z,57.20
2019-06-19T14:45:15.153Z,58.10
2019-06-19T14:47:44.598Z,58.10
2019-06-19T14:50:14.904Z,60.90
2019-06-19T14:52:44.274Z,56.20
2019-06-19T14:55:14.727Z,56.80
2019-06-19T14:57:44.167Z,55.90
2019-06-19T15:00:14.610Z,55.80
2019-06-19T15:02:44.021Z,57.00
2019-06-19T15:05:13.478Z,56.10
2019-06-19T15:07:53.937Z,57.20
2019-06-19T15:10:14.850Z,59.10
2019-06-19T15:12:44.265Z,56.90
2019-06-19T15:15:15.263Z,58.60
2019-06-19T15:17:45.029Z,59.10
2019-06-19T15:20:14.600Z,57.90
2019-06-19T15:22:44.156Z,59.00
2019-06-19T15:25:13.650Z,56.90
2019-06-19T15:27:43.149Z,57.00
2019-06-19T15:30:12.877Z,56.30
2019-06-19T15:32:42.284Z,56.00
2019-06-19T15:35:11.993Z,57.20
2019-06-19T15:37:41.783Z,57.90
2019-06-19T15:40:11.549Z,58.70
2019-06-19T15:42:40.944Z,59.10
2019-06-19T15:45:10.760Z,60.60
2019-06-19T15:47:40.493Z,60.00
2019-06-19T15:50:10.117Z,60.90
2019-06-19T15:52:39.651Z,62.00
2019-06-19T15:55:09.850Z,61.20
2019-06-19T15:57:39.273Z,60.90
2019-06-19T16:00:09.716Z,62.00
2019-06-19T16:02:39.193Z,62.60
2019-06-19T16:05:09.072Z,62.10
2019-06-19T16:07:38.874Z,62.30
2019-06-19T16:10:10.486Z,62.30
2019-06-19T16:12:40.333Z,61.40
2019-06-19T16:15:10.540Z,62.00
2019-06-19T16:17:40.083Z,62.20
2019-06-19T16:20:28.596Z,63.20
2019-06-19T16:22:58.021Z,63.30
2019-06-19T16:25:28.269Z,64.00
2019-06-19T16:27:57.796Z,62.50
2019-06-19T16:30:27.365Z,63.90
2019-06-19T16:32:56.807Z,63.80
2019-06-19T16:35:26.233Z,63.90
2019-06-19T16:37:55.670Z,64.10
2019-06-19T16:40:25.736Z,62.40
2019-06-19T16:42:57.635Z,64.10
2019-06-19T16:45:27.669Z,63.60
2019-06-19T16:47:57.139Z,62.80
2019-06-19T16:50:27.038Z,62.20
2019-06-19T16:52:56.499Z,62.80
2019-06-19T16:55:25.885Z,62.60
2019-06-19T16:57:55.723Z,62.30
2019-06-19T17:00:26.009Z,62.60
2019-06-19T17:02:55.479Z,63.00
2019-06-19T17:05:25.001Z,64.20
2019-06-19T17:07:54.430Z,64.20
2019-06-19T17:10:23.890Z,63.70
2019-06-19T17:12:57.394Z,64.60
2019-06-19T17:15:26.883Z,64.50
2019-06-19T17:17:56.379Z,64.90
2019-06-19T17:20:26.178Z,65.00
2019-06-19T17:22:55.650Z,65.40
2019-06-19T17:25:25.404Z,65.90
2019-06-19T17:27:55.794Z,67.80
2019-06-19T17:30:25.511Z,67.70
2019-06-19T17:32:55.003Z,69.40
2019-06-19T17:35:24.433Z,68.70
2019-06-19T17:37:54.283Z,69.30
2019-06-19T17:40:27.190Z,69.50
2019-06-19T17:42:56.709Z,69.70
2019-06-19T17:45:26.159Z,70.40
2019-06-19T17:47:55.996Z,70.00
2019-06-19T17:50:25.488Z,70.40
2019-06-19T17:52:54.965Z,69.70
2019-06-19T17:55:24.388Z,69.70
2019-06-19T17:57:55.957Z,70.60
2019-06-19T18:00:25.918Z,70.90
2019-06-19T18:02:55.484Z,70.70
2019-06-19T18:05:26.228Z,71.00
2019-06-19T18:07:56.350Z,71.50
2019-06-19T18:10:27.240Z,71.90
2019-06-19T18:12:56.999Z,72.80
2019-06-19T18:15:26.750Z,72.50
2019-06-19T18:17:56.616Z,72.70
2019-06-19T18:20:26.725Z,71.70
2019-06-19T18:22:56.557Z,72.10
2019-06-19T18:25:25.977Z,72.00
2019-06-19T18:27:55.465Z,71.70
2019-06-19T18:30:25.198Z,71.50
2019-06-19T18:32:54.655Z,71.60
2019-06-19T18:35:24.109Z,69.20
2019-06-19T18:37:53.789Z,68.20
2019-06-19T18:40:23.458Z,65.70
2019-06-19T18:42:52.929Z,64.60
2019-06-19T18:45:23.789Z,62.70
2019-06-19T18:47:56.970Z,63.70
2019-06-19T18:50:26.279Z,63.60
2019-06-19T18:52:57.743Z,62.50
2019-06-19T18:55:27.181Z,62.20
2019-06-19T18:57:57.091Z,62.20
2019-06-19T19:00:27.988Z,61.10
2019-06-19T19:02:57.432Z,62.90
2019-06-19T19:05:28.155Z,62.10
2019-06-19T19:07:57.585Z,63.60
2019-06-19T19:10:28.954Z,63.10
2019-06-19T19:12:58.372Z,63.20
2019-06-19T19:15:27.859Z,63.40
2019-06-19T19:17:57.566Z,63.80
2019-06-19T19:20:26.982Z,63.90
2019-06-19T19:22:56.903Z,64.70
2019-06-19T19:25:26.729Z,66.00
2019-06-19T19:27:57.133Z,65.40
2019-06-19T19:30:26.779Z,65.60
2019-06-19T19:32:56.997Z,66.00
2019-06-19T19:35:26.415Z,66.40
2019-06-19T19:37:56.535Z,67.10
2019-06-19T19:40:30.004Z,67.30
2019-06-19T19:42:57.839Z,66.90
2019-06-19T19:45:27.330Z,67.50
2019-06-19T19:47:56.889Z,68.30
2019-06-19T19:50:26.618Z,68.70
2019-06-19T19:53:05.384Z,69.10
2019-06-19T19:55:27.158Z,69.10
2019-06-19T19:57:56.633Z,68.60
2019-06-19T20:00:33.558Z,69.30
2019-06-19T20:03:03.325Z,67.30
2019-06-19T20:05:33.085Z,67.20
2019-06-19T20:08:02.813Z,68.50
2019-06-19T20:10:45.319Z,68.70
2019-06-19T20:13:03.298Z,69.10
2019-06-19T20:15:33.394Z,69.00
2019-06-19T20:18:02.810Z,69.30
2019-06-19T20:20:32.257Z,69.60
2019-06-19T20:23:01.794Z,69.20
2019-06-19T20:25:31.304Z,69.80
2019-06-19T20:28:00.743Z,70.10
2019-06-19T20:30:30.186Z,70.00
2019-06-19T20:33:00.082Z,70.40
2019-06-19T20:35:29.564Z,71.90
2019-06-19T20:37:58.970Z,73.50
2019-06-19T20:40:28.685Z,73.00
2019-06-19T20:42:58.463Z,73.30
2019-06-19T20:45:27.872Z,71.90
2019-06-19T20:47:57.600Z,70.60
2019-06-19T20:50:27.557Z,72.40
2019-06-19T20:52:59.142Z,71.30
2019-06-19T20:55:28.554Z,71.80
2019-06-19T20:57:58.109Z,71.30
2019-06-19T21:00:28.554Z,74.30
2019-06-19T21:02:58.704Z,75.10
2019-06-19T21:05:28.210Z,73.80
2019-06-19T21:07:57.630Z,76.00
2019-06-19T21:10:27.054Z,76.80
2019-06-19T21:12:56.513Z,76.40
2019-06-19T21:15:26.382Z,76.60
2019-06-19T21:17:56.132Z,76.20
2019-06-19T21:20:25.750Z,72.90
2019-06-19T21:22:55.211Z,73.00
2019-06-19T21:25:24.652Z,72.50
2019-06-19T21:27:54.065Z,72.40
2019-06-19T21:30:23.708Z,75.10
2019-06-19T21:32:53.896Z,75.60
2019-06-19T21:35:23.611Z,75.00
2019-06-19T21:37:53.080Z,74.50
2019-06-19T21:40:25.210Z,74.50
2019-06-19T21:42:54.669Z,75.90
2019-06-19T21:45:24.129Z,75.60
2019-06-19T21:47:53.534Z,75.00
2019-06-19T21:50:23.242Z,78.00
2019-06-19T21:52:52.721Z,77.10
2019-06-19T21:55:22.182Z,77.70
2019-06-19T21:57:51.577Z,77.40
2019-06-19T22:00:26.561Z,78.40
2019-06-19T22:02:56.377Z,78.40
2019-06-19T22:05:25.798Z,78.50
2019-06-19T22:07:55.382Z,79.40
2019-06-19T22:10:25.098Z,79.00
2019-06-19T22:12:54.560Z,78.50
2019-06-19T22:15:24.414Z,79.50
2019-06-19T22:17:53.901Z,78.90
2019-06-19T22:20:23.352Z,80.30
2019-06-19T22:22:52.756Z,79.70
2019-06-19T22:25:22.366Z,79.70
2019-06-19T22:27:51.774Z,79.10
2019-06-19T22:30:22.325Z,79.80
2019-06-19T22:32:51.691Z,80.80
2019-06-19T22:35:21.153Z,82.00
2019-06-19T22:37:50.612Z,82.80
2019-06-19T22:40:20.326Z,82.70
2019-06-19T22:42:49.764Z,83.40
2019-06-19T22:45:26.082Z,84.50
2019-06-19T22:47:55.495Z,85.20
2019-06-19T22:50:31.891Z,85.90
2019-06-19T22:53:01.373Z,87.50
2019-06-19T22:55:30.797Z,89.00
2019-06-19T22:58:00.462Z,89.70
2019-06-19T23:00:29.880Z,90.40
2019-06-19T23:03:16.875Z,91.40
2019-06-19T23:05:49.279Z,92.50
2019-06-19T23:08:18.696Z,93.10
2019-06-19T23:10:48.452Z,94.30
2019-06-19T23:13:17.943Z,95.40
2019-06-19T23:15:47.341Z,96.40
2019-06-19T23:18:16.789Z,97.40
2019-06-19T23:20:46.356Z,98.30
2019-06-19T23:23:15.794Z,98.90
2019-06-19T23:25:45.266Z,99.50
2019-06-19T23:28:14.715Z,99.90
2019-06-19T23:30:44.437Z,99.90
2019-06-19T23:33:13.861Z,99.90
2019-06-19T23:35:43.270Z,99.90
2019-06-19T23:38:12.700Z,99.90
2019-06-19T23:40:42.409Z,99.90
2019-06-19T23:43:11.847Z,99.90
2019-06-19T23:45:41.262Z,99.90
2019-06-19T23:48:10.737Z,99.90
2019-06-19T23:50:40.173Z,99.90
2019-06-19T23:53:09.965Z,99.90
2019-06-19T23:55:39.358Z,99.90
2019-06-19T23:58:08.841Z,99.90
